Annette Island, AK

12:52 AM AKDT on October 22, 2014 (GMT -0800)
Annette Island | Change Station
CLOSE
Current Station
Airport
Location: Annette Island,
Elevation: 112 ft
Nearby Weather Stations

Elev 112 ft 55.04 °N, 131.57 °W | Updated 24 minutes ago

Light Rain
Light Rain
48 °F
Feels Like 48 °F
N
15
Wind Variable Wind from ESE
Gusts 25 mph

Today
High -- | Low -- °F
--% Chance of Precip.
Yesterday
High -- | Low -- °F
Precip. -- in
7:30 AM 5:30 PM
Waning Crescent, 2% visible
Pressure 29.28 in
Visibility 10.0 miles
Clouds Mostly Cloudy 2900 ft
Dew Point 42 °F
Humidity 80%
Rainfall 0.00 in
Snow Depth Not available.
UV 0 out of 12
Pollen Not available.
Air Quality Not available.
Flu Activity Sporadic
SPECI PANT 220828Z AUTO 12013G22KT 10SM -RA BKN029 09/06 A2928 RMK AO2 PK WND 13026/0759 P0000 T00890056 TSNO

More Conditions Fewer Conditions

Pressure 29.28 in
Visibility 10.0 miles
Clouds Mostly Cloudy 2900 ft
Dew Point 42 °F
Humidity 80%
Rainfall 0.00 in
Snow Depth Not available.
UV 0 out of 12
Pollen Not available.
Air Quality Not available.
Flu Activity Sporadic
SPECI PANT 220828Z AUTO 12013G22KT 10SM -RA BKN029 09/06 A2928 RMK AO2 PK WND 13026/0759 P0000 T00890056 TSNO

More Conditions Fewer Conditions

10-Day Weather Forecast

Almanac

Astronomy

Oct. 22, 2014 Rise Set
Actual Time 7:30 AM AKDT 5:30 PM AKDT
Civil Twilight 6:52 AM AKDT 6:07 PM AKDT
Nautical Twilight 6:10 AM AKDT 6:49 PM AKDT
Astronomical Twilight 5:28 AM AKDT 7:31 PM AKDT
Moon 6:07 AM AKDT 5:08 PM AKDT
Length of Visible Light 11h 14m
Length of Day
10h 00m
Tomorrow will be 4m 19s shorter.
Waning Crescent, 2% of the Moon is Illuminated
Today
Waning Crescent
Oct 23
New
Oct 30
First Quarter
Nov 6
Full
Nov 14
Last Quarter

Today's Extremes

State Highs State Lows

Community

WunderPhotos

Upload Photos

1,763,889 photos uploaded!

Nearby

Snow Depth

Station Depth Elevation
Long Lake 0 in 820 ft
Upper Tsaina River 9 in 1750 ft
Moraine 0 in 2100 ft
Nuka Glacier 13 in 1250 ft
Grouse Creek Divide 0 in 700 ft

Earthquake Activity

City Distance Mag. Time & Date
No recent earthquake activity has been reported nearby.
Minimum magnitude displayed is 2.5.

Coastal Water Temperatures

Place Temperature
No Stations Reporting

Nearby Weather Stations